sensor_id;sensor_type;location;lat;lon;timestamp;P1;durP1;ratioP1;P2;durP2;ratioP2
58637;SDS011;54976;51.510;7.522;2023-06-19T00:02:29;8.27;;;3.67;;
58637;SDS011;54976;51.510;7.522;2023-06-19T00:05:29;4.57;;;3.30;;
58637;SDS011;54976;51.510;7.522;2023-06-19T00:08:30;4.32;;;3.80;;
58637;SDS011;54976;51.510;7.522;2023-06-19T00:11:30;4.57;;;3.88;;
58637;SDS011;54976;51.510;7.522;2023-06-19T00:14:31;4.55;;;3.60;;
58637;SDS011;54976;51.510;7.522;2023-06-19T00:17:32;9.02;;;3.97;;
58637;SDS011;54976;51.510;7.522;2023-06-19T00:20:33;4.65;;;3.58;;
58637;SDS011;54976;51.510;7.522;2023-06-19T00:23:35;6.95;;;3.72;;
58637;SDS011;54976;51.510;7.522;2023-06-19T00:26:35;4.93;;;3.90;;
58637;SDS011;54976;51.510;7.522;2023-06-19T00:29:36;4.47;;;3.67;;
58637;SDS011;54976;51.510;7.522;2023-06-19T00:32:37;3.63;;;3.28;;
58637;SDS011;54976;51.510;7.522;2023-06-19T00:35:46;4.72;;;3.78;;
58637;SDS011;54976;51.510;7.522;2023-06-19T00:38:47;6.13;;;3.83;;
58637;SDS011;54976;51.510;7.522;2023-06-19T00:41:48;5.97;;;4.20;;
58637;SDS011;54976;51.510;7.522;2023-06-19T00:44:51;5.63;;;4.40;;
58637;SDS011;54976;51.510;7.522;2023-06-19T00:47:52;4.60;;;3.92;;
58637;SDS011;54976;51.510;7.522;2023-06-19T00:50:53;4.50;;;4.05;;
58637;SDS011;54976;51.510;7.522;2023-06-19T00:53:55;7.47;;;4.10;;
58637;SDS011;54976;51.510;7.522;2023-06-19T00:56:56;5.60;;;3.78;;
58637;SDS011;54976;51.510;7.522;2023-06-19T00:59:57;5.85;;;4.35;;
58637;SDS011;54976;51.510;7.522;2023-06-19T01:02:58;4.35;;;3.95;;
58637;SDS011;54976;51.510;7.522;2023-06-19T01:05:59;4.80;;;4.10;;
58637;SDS011;54976;51.510;7.522;2023-06-19T01:09:02;5.35;;;4.35;;
58637;SDS011;54976;51.510;7.522;2023-06-19T01:12:13;4.30;;;3.75;;
58637;SDS011;54976;51.510;7.522;2023-06-19T01:15:17;4.18;;;3.78;;
58637;SDS011;54976;51.510;7.522;2023-06-19T01:18:19;4.07;;;3.67;;
58637;SDS011;54976;51.510;7.522;2023-06-19T01:21:21;6.22;;;4.43;;
58637;SDS011;54976;51.510;7.522;2023-06-19T01:24:22;6.15;;;3.67;;
58637;SDS011;54976;51.510;7.522;2023-06-19T01:27:23;4.50;;;3.90;;
58637;SDS011;54976;51.510;7.522;2023-06-19T01:30:25;4.15;;;3.70;;
58637;SDS011;54976;51.510;7.522;2023-06-19T01:33:27;5.50;;;4.22;;
58637;SDS011;54976;51.510;7.522;2023-06-19T01:36:31;3.83;;;3.45;;
58637;SDS011;54976;51.510;7.522;2023-06-19T01:39:32;5.47;;;4.55;;
58637;SDS011;54976;51.510;7.522;2023-06-19T01:42:33;4.38;;;3.67;;
58637;SDS011;54976;51.510;7.522;2023-06-19T01:45:35;4.15;;;3.78;;
58637;SDS011;54976;51.510;7.522;2023-06-19T01:48:37;4.18;;;3.78;;
58637;SDS011;54976;51.510;7.522;2023-06-19T01:51:39;5.93;;;3.90;;
58637;SDS011;54976;51.510;7.522;2023-06-19T01:54:40;6.10;;;3.97;;
58637;SDS011;54976;51.510;7.522;2023-06-19T01:57:41;4.82;;;3.88;;
58637;SDS011;54976;51.510;7.522;2023-06-19T02:00:41;4.72;;;4.22;;
58637;SDS011;54976;51.510;7.522;2023-06-19T02:03:42;5.57;;;4.07;;
58637;SDS011;54976;51.510;7.522;2023-06-19T02:06:42;4.78;;;3.97;;
58637;SDS011;54976;51.510;7.522;2023-06-19T02:09:43;5.20;;;3.72;;
58637;SDS011;54976;51.510;7.522;2023-06-19T02:12:44;4.35;;;3.83;;
58637;SDS011;54976;51.510;7.522;2023-06-19T02:15:44;4.53;;;4.00;;
58637;SDS011;54976;51.510;7.522;2023-06-19T02:18:45;5.18;;;4.15;;
58637;SDS011;54976;51.510;7.522;2023-06-19T02:21:45;5.88;;;4.10;;
58637;SDS011;54976;51.510;7.522;2023-06-19T02:24:46;5.35;;;4.35;;
58637;SDS011;54976;51.510;7.522;2023-06-19T02:27:47;7.60;;;4.65;;
58637;SDS011;54976;51.510;7.522;2023-06-19T02:30:47;7.07;;;4.45;;
58637;SDS011;54976;51.510;7.522;2023-06-19T02:33:48;6.97;;;4.32;;
58637;SDS011;54976;51.510;7.522;2023-06-19T02:36:49;6.43;;;4.00;;
58637;SDS011;54976;51.510;7.522;2023-06-19T02:39:50;4.57;;;3.95;;
58637;SDS011;54976;51.510;7.522;2023-06-19T02:42:50;6.18;;;4.38;;
58637;SDS011;54976;51.510;7.522;2023-06-19T02:45:51;4.80;;;4.25;;
58637;SDS011;54976;51.510;7.522;2023-06-19T02:48:52;7.40;;;4.05;;
58637;SDS011;54976;51.510;7.522;2023-06-19T02:51:52;5.18;;;4.10;;
58637;SDS011;54976;51.510;7.522;2023-06-19T02:54:53;4.93;;;4.25;;
58637;SDS011;54976;51.510;7.522;2023-06-19T02:57:54;6.63;;;4.63;;
58637;SDS011;54976;51.510;7.522;2023-06-19T03:00:55;9.32;;;4.55;;
58637;SDS011;54976;51.510;7.522;2023-06-19T03:03:55;6.45;;;3.95;;
58637;SDS011;54976;51.510;7.522;2023-06-19T03:06:56;5.63;;;4.25;;
58637;SDS011;54976;51.510;7.522;2023-06-19T03:09:56;6.15;;;4.72;;
58637;SDS011;54976;51.510;7.522;2023-06-19T03:12:57;5.00;;;4.43;;
58637;SDS011;54976;51.510;7.522;2023-06-19T03:15:58;7.70;;;4.68;;
58637;SDS011;54976;51.510;7.522;2023-06-19T03:18:59;5.07;;;4.53;;
58637;SDS011;54976;51.510;7.522;2023-06-19T03:22:00;7.00;;;4.35;;
58637;SDS011;54976;51.510;7.522;2023-06-19T03:25:03;4.43;;;4.03;;
58637;SDS011;54976;51.510;7.522;2023-06-19T03:28:04;4.60;;;4.20;;
58637;SDS011;54976;51.510;7.522;2023-06-19T03:31:04;4.68;;;3.83;;
58637;SDS011;54976;51.510;7.522;2023-06-19T03:34:05;8.07;;;4.20;;
58637;SDS011;54976;51.510;7.522;2023-06-19T03:37:06;7.45;;;4.28;;
58637;SDS011;54976;51.510;7.522;2023-06-19T03:40:06;6.78;;;4.13;;
58637;SDS011;54976;51.510;7.522;2023-06-19T03:43:13;5.68;;;3.85;;
58637;SDS011;54976;51.510;7.522;2023-06-19T03:46:14;5.63;;;4.10;;
58637;SDS011;54976;51.510;7.522;2023-06-19T03:49:14;9.48;;;3.95;;
58637;SDS011;54976;51.510;7.522;2023-06-19T03:52:15;8.00;;;3.90;;
58637;SDS011;54976;51.510;7.522;2023-06-19T03:55:16;4.93;;;3.33;;
58637;SDS011;54976;51.510;7.522;2023-06-19T03:58:16;5.95;;;3.30;;
58637;SDS011;54976;51.510;7.522;2023-06-19T04:01:17;8.68;;;3.17;;
58637;SDS011;54976;51.510;7.522;2023-06-19T04:04:17;5.38;;;2.75;;
58637;SDS011;54976;51.510;7.522;2023-06-19T04:07:18;3.70;;;2.70;;
58637;SDS011;54976;51.510;7.522;2023-06-19T04:10:19;3.45;;;2.55;;
58637;SDS011;54976;51.510;7.522;2023-06-19T04:13:19;4.35;;;3.03;;
58637;SDS011;54976;51.510;7.522;2023-06-19T04:16:20;2.65;;;2.38;;
58637;SDS011;54976;51.510;7.522;2023-06-19T04:19:21;5.20;;;2.10;;
58637;SDS011;54976;51.510;7.522;2023-06-19T04:22:21;4.97;;;3.08;;
58637;SDS011;54976;51.510;7.522;2023-06-19T04:25:22;5.85;;;2.75;;
58637;SDS011;54976;51.510;7.522;2023-06-19T04:28:22;3.00;;;2.50;;
58637;SDS011;54976;51.510;7.522;2023-06-19T04:31:23;4.40;;;2.70;;
58637;SDS011;54976;51.510;7.522;2023-06-19T04:34:26;3.95;;;3.28;;
58637;SDS011;54976;51.510;7.522;2023-06-19T04:37:27;3.05;;;2.75;;
58637;SDS011;54976;51.510;7.522;2023-06-19T04:40:27;4.63;;;2.70;;
58637;SDS011;54976;51.510;7.522;2023-06-19T04:43:28;5.95;;;3.20;;
58637;SDS011;54976;51.510;7.522;2023-06-19T04:46:28;3.13;;;2.80;;
58637;SDS011;54976;51.510;7.522;2023-06-19T04:49:29;3.92;;;2.83;;
58637;SDS011;54976;51.510;7.522;2023-06-19T04:52:30;4.28;;;2.88;;
58637;SDS011;54976;51.510;7.522;2023-06-19T04:55:33;3.63;;;2.70;;
58637;SDS011;54976;51.510;7.522;2023-06-19T04:58:33;3.20;;;2.90;;
58637;SDS011;54976;51.510;7.522;2023-06-19T05:01:34;3.03;;;2.80;;
58637;SDS011;54976;51.510;7.522;2023-06-19T05:04:35;4.45;;;2.63;;
58637;SDS011;54976;51.510;7.522;2023-06-19T05:07:36;3.30;;;2.78;;
58637;SDS011;54976;51.510;7.522;2023-06-19T05:10:36;9.18;;;2.80;;
58637;SDS011;54976;51.510;7.522;2023-06-19T05:13:37;4.85;;;3.00;;
58637;SDS011;54976;51.510;7.522;2023-06-19T05:16:37;3.72;;;2.95;;
58637;SDS011;54976;51.510;7.522;2023-06-19T05:19:38;5.95;;;3.20;;
58637;SDS011;54976;51.510;7.522;2023-06-19T05:22:39;6.25;;;3.00;;
58637;SDS011;54976;51.510;7.522;2023-06-19T05:25:40;4.22;;;2.80;;
58637;SDS011;54976;51.510;7.522;2023-06-19T05:28:40;4.68;;;2.80;;
58637;SDS011;54976;51.510;7.522;2023-06-19T05:31:41;4.35;;;2.65;;
58637;SDS011;54976;51.510;7.522;2023-06-19T05:34:41;5.40;;;2.95;;
58637;SDS011;54976;51.510;7.522;2023-06-19T05:37:42;2.83;;;2.53;;
58637;SDS011;54976;51.510;7.522;2023-06-19T05:40:43;5.25;;;2.22;;
58637;SDS011;54976;51.510;7.522;2023-06-19T05:43:44;7.07;;;2.40;;
58637;SDS011;54976;51.510;7.522;2023-06-19T05:46:44;3.33;;;2.10;;
58637;SDS011;54976;51.510;7.522;2023-06-19T05:49:46;4.55;;;2.05;;
58637;SDS011;54976;51.510;7.522;2023-06-19T05:52:47;7.50;;;2.05;;
58637;SDS011;54976;51.510;7.522;2023-06-19T05:55:47;3.22;;;1.60;;
58637;SDS011;54976;51.510;7.522;2023-06-19T05:58:48;2.78;;;1.65;;
58637;SDS011;54976;51.510;7.522;2023-06-19T06:01:49;3.47;;;1.70;;
58637;SDS011;54976;51.510;7.522;2023-06-19T06:04:50;2.55;;;1.60;;
58637;SDS011;54976;51.510;7.522;2023-06-19T06:07:51;2.47;;;1.88;;
58637;SDS011;54976;51.510;7.522;2023-06-19T06:10:52;3.15;;;1.63;;
58637;SDS011;54976;51.510;7.522;2023-06-19T06:13:52;2.15;;;1.40;;
58637;SDS011;54976;51.510;7.522;2023-06-19T06:16:53;2.75;;;1.70;;
58637;SDS011;54976;51.510;7.522;2023-06-19T06:19:54;2.85;;;1.50;;
58637;SDS011;54976;51.510;7.522;2023-06-19T06:22:54;4.10;;;1.90;;
58637;SDS011;54976;51.510;7.522;2023-06-19T06:25:55;5.18;;;2.05;;
58637;SDS011;54976;51.510;7.522;2023-06-19T06:29:01;2.65;;;1.50;;
58637;SDS011;54976;51.510;7.522;2023-06-19T06:32:05;2.60;;;1.70;;
58637;SDS011;54976;51.510;7.522;2023-06-19T06:35:07;2.40;;;1.50;;
58637;SDS011;54976;51.510;7.522;2023-06-19T06:38:08;1.85;;;1.40;;
58637;SDS011;54976;51.510;7.522;2023-06-19T06:41:08;3.63;;;1.80;;
58637;SDS011;54976;51.510;7.522;2023-06-19T06:44:09;3.03;;;1.70;;
58637;SDS011;54976;51.510;7.522;2023-06-19T06:47:10;6.25;;;1.60;;
58637;SDS011;54976;51.510;7.522;2023-06-19T06:50:11;3.10;;;1.42;;
58637;SDS011;54976;51.510;7.522;2023-06-19T06:53:12;6.43;;;1.40;;
58637;SDS011;54976;51.510;7.522;2023-06-19T06:56:12;3.55;;;1.80;;
58637;SDS011;54976;51.510;7.522;2023-06-19T06:59:13;3.65;;;1.80;;
58637;SDS011;54976;51.510;7.522;2023-06-19T07:02:15;2.65;;;1.35;;
58637;SDS011;54976;51.510;7.522;2023-06-19T07:05:16;2.83;;;1.50;;
58637;SDS011;54976;51.510;7.522;2023-06-19T07:08:17;3.05;;;1.75;;
58637;SDS011;54976;51.510;7.522;2023-06-19T07:11:17;1.58;;;1.48;;
58637;SDS011;54976;51.510;7.522;2023-06-19T07:14:18;2.17;;;1.77;;
58637;SDS011;54976;51.510;7.522;2023-06-19T07:17:20;3.03;;;1.70;;
58637;SDS011;54976;51.510;7.522;2023-06-19T07:20:20;1.85;;;1.75;;
58637;SDS011;54976;51.510;7.522;2023-06-19T07:23:21;2.17;;;1.52;;
58637;SDS011;54976;51.510;7.522;2023-06-19T07:26:22;2.45;;;1.70;;
58637;SDS011;54976;51.510;7.522;2023-06-19T07:29:23;2.15;;;1.52;;
58637;SDS011;54976;51.510;7.522;2023-06-19T07:32:25;3.22;;;1.65;;
58637;SDS011;54976;51.510;7.522;2023-06-19T07:35:26;4.25;;;1.65;;
58637;SDS011;54976;51.510;7.522;2023-06-19T07:38:26;1.75;;;1.38;;
58637;SDS011;54976;51.510;7.522;2023-06-19T07:41:27;1.95;;;1.40;;
58637;SDS011;54976;51.510;7.522;2023-06-19T07:44:27;2.92;;;1.63;;
58637;SDS011;54976;51.510;7.522;2023-06-19T07:47:28;4.22;;;1.60;;
58637;SDS011;54976;51.510;7.522;2023-06-19T07:50:29;2.00;;;1.42;;
58637;SDS011;54976;51.510;7.522;2023-06-19T07:53:29;3.90;;;1.75;;
58637;SDS011;54976;51.510;7.522;2023-06-19T07:56:30;2.72;;;2.03;;
58637;SDS011;54976;51.510;7.522;2023-06-19T07:59:32;2.60;;;1.80;;
58637;SDS011;54976;51.510;7.522;2023-06-19T08:02:32;2.30;;;1.70;;
58637;SDS011;54976;51.510;7.522;2023-06-19T08:05:33;2.95;;;1.73;;
58637;SDS011;54976;51.510;7.522;2023-06-19T08:08:33;3.08;;;1.80;;
58637;SDS011;54976;51.510;7.522;2023-06-19T08:11:34;2.03;;;1.83;;
58637;SDS011;54976;51.510;7.522;2023-06-19T08:14:35;5.30;;;1.70;;
58637;SDS011;54976;51.510;7.522;2023-06-19T08:17:38;3.20;;;1.90;;
58637;SDS011;54976;51.510;7.522;2023-06-19T08:20:39;5.47;;;1.52;;
58637;SDS011;54976;51.510;7.522;2023-06-19T08:23:39;4.85;;;1.85;;
58637;SDS011;54976;51.510;7.522;2023-06-19T08:26:43;5.47;;;1.80;;
58637;SDS011;54976;51.510;7.522;2023-06-19T08:29:44;1.83;;;1.63;;
58637;SDS011;54976;51.510;7.522;2023-06-19T08:32:45;3.22;;;1.65;;
58637;SDS011;54976;51.510;7.522;2023-06-19T08:35:46;3.30;;;1.90;;
58637;SDS011;54976;51.510;7.522;2023-06-19T08:38:48;2.28;;;1.88;;
58637;SDS011;54976;51.510;7.522;2023-06-19T08:41:50;5.25;;;1.63;;
58637;SDS011;54976;51.510;7.522;2023-06-19T08:44:53;6.15;;;1.90;;
58637;SDS011;54976;51.510;7.522;2023-06-19T08:48:00;3.58;;;1.85;;
58637;SDS011;54976;51.510;7.522;2023-06-19T08:51:03;3.15;;;1.70;;
58637;SDS011;54976;51.510;7.522;2023-06-19T08:54:06;3.15;;;1.80;;
58637;SDS011;54976;51.510;7.522;2023-06-19T08:57:08;1.88;;;1.73;;
58637;SDS011;54976;51.510;7.522;2023-06-19T09:00:09;2.45;;;1.90;;
58637;SDS011;54976;51.510;7.522;2023-06-19T09:03:10;9.05;;;1.70;;
58637;SDS011;54976;51.510;7.522;2023-06-19T09:06:15;2.25;;;1.88;;
58637;SDS011;54976;51.510;7.522;2023-06-19T09:09:16;3.40;;;1.90;;
58637;SDS011;54976;51.510;7.522;2023-06-19T09:12:20;3.88;;;1.70;;
58637;SDS011;54976;51.510;7.522;2023-06-19T09:15:20;2.15;;;1.63;;
58637;SDS011;54976;51.510;7.522;2023-06-19T09:18:23;2.53;;;1.52;;
58637;SDS011;54976;51.510;7.522;2023-06-19T09:21:24;5.55;;;2.10;;
58637;SDS011;54976;51.510;7.522;2023-06-19T09:24:32;2.10;;;1.90;;
58637;SDS011;54976;51.510;7.522;2023-06-19T09:27:35;5.38;;;1.85;;
58637;SDS011;54976;51.510;7.522;2023-06-19T09:30:36;8.70;;;1.77;;
58637;SDS011;54976;51.510;7.522;2023-06-19T09:33:37;7.28;;;2.30;;
58637;SDS011;54976;51.510;7.522;2023-06-19T09:36:39;7.72;;;1.70;;
58637;SDS011;54976;51.510;7.522;2023-06-19T09:39:40;2.70;;;1.90;;
58637;SDS011;54976;51.510;7.522;2023-06-19T09:42:42;6.38;;;2.00;;
58637;SDS011;54976;51.510;7.522;2023-06-19T09:45:43;5.25;;;1.85;;
58637;SDS011;54976;51.510;7.522;2023-06-19T09:48:47;2.63;;;1.70;;
58637;SDS011;54976;51.510;7.522;2023-06-19T09:54:52;4.82;;;1.10;;
58637;SDS011;54976;51.510;7.522;2023-06-19T09:57:54;3.55;;;1.15;;
58637;SDS011;54976;51.510;7.522;2023-06-19T10:00:55;7.57;;;1.27;;
58637;SDS011;54976;51.510;7.522;2023-06-19T10:04:06;2.05;;;1.10;;
58637;SDS011;54976;51.510;7.522;2023-06-19T10:07:14;1.23;;;0.98;;
58637;SDS011;54976;51.510;7.522;2023-06-19T10:13:31;2.70;;;1.30;;
58637;SDS011;54976;51.510;7.522;2023-06-19T10:16:33;2.78;;;1.35;;
58637;SDS011;54976;51.510;7.522;2023-06-19T10:19:34;3.30;;;1.63;;
58637;SDS011;54976;51.510;7.522;2023-06-19T10:22:35;4.60;;;1.42;;
58637;SDS011;54976;51.510;7.522;2023-06-19T10:25:42;1.40;;;1.30;;
58637;SDS011;54976;51.510;7.522;2023-06-19T10:28:45;3.83;;;1.63;;
58637;SDS011;54976;51.510;7.522;2023-06-19T10:31:48;7.53;;;1.58;;
58637;SDS011;54976;51.510;7.522;2023-06-19T10:34:49;7.53;;;1.80;;
58637;SDS011;54976;51.510;7.522;2023-06-19T10:37:50;8.07;;;2.03;;
58637;SDS011;54976;51.510;7.522;2023-06-19T10:40:51;3.53;;;1.50;;
58637;SDS011;54976;51.510;7.522;2023-06-19T10:43:54;6.55;;;2.00;;
58637;SDS011;54976;51.510;7.522;2023-06-19T10:46:57;5.57;;;2.08;;
58637;SDS011;54976;51.510;7.522;2023-06-19T10:49:58;3.85;;;1.85;;
58637;SDS011;54976;51.510;7.522;2023-06-19T10:52:59;6.88;;;1.73;;
58637;SDS011;54976;51.510;7.522;2023-06-19T10:56:00;7.25;;;2.00;;
58637;SDS011;54976;51.510;7.522;2023-06-19T10:59:03;8.18;;;2.58;;
58637;SDS011;54976;51.510;7.522;2023-06-19T11:02:11;9.43;;;2.10;;
58637;SDS011;54976;51.510;7.522;2023-06-19T11:05:12;2.85;;;2.03;;
58637;SDS011;54976;51.510;7.522;2023-06-19T11:08:20;7.75;;;2.45;;
58637;SDS011;54976;51.510;7.522;2023-06-19T11:11:22;3.80;;;1.95;;
58637;SDS011;54976;51.510;7.522;2023-06-19T11:14:22;7.57;;;2.28;;
58637;SDS011;54976;51.510;7.522;2023-06-19T11:17:25;6.88;;;1.95;;
58637;SDS011;54976;51.510;7.522;2023-06-19T11:20:26;6.20;;;2.13;;
58637;SDS011;54976;51.510;7.522;2023-06-19T11:23:28;3.88;;;2.45;;
58637;SDS011;54976;51.510;7.522;2023-06-19T11:26:29;5.13;;;2.08;;
58637;SDS011;54976;51.510;7.522;2023-06-19T11:29:33;4.13;;;2.25;;
58637;SDS011;54976;51.510;7.522;2023-06-19T11:32:35;3.92;;;2.67;;
58637;SDS011;54976;51.510;7.522;2023-06-19T11:35:40;3.15;;;2.17;;
58637;SDS011;54976;51.510;7.522;2023-06-19T11:38:46;3.25;;;2.40;;
58637;SDS011;54976;51.510;7.522;2023-06-19T11:41:47;7.03;;;2.38;;
58637;SDS011;54976;51.510;7.522;2023-06-19T11:44:54;6.13;;;2.30;;
58637;SDS011;54976;51.510;7.522;2023-06-19T11:47:55;6.43;;;3.25;;
58637;SDS011;54976;51.510;7.522;2023-06-19T11:50:56;9.10;;;2.83;;
58637;SDS011;54976;51.510;7.522;2023-06-19T11:53:57;6.57;;;2.50;;
58637;SDS011;54976;51.510;7.522;2023-06-19T11:56:57;2.72;;;2.20;;
58637;SDS011;54976;51.510;7.522;2023-06-19T11:59:58;6.18;;;2.85;;
58637;SDS011;54976;51.510;7.522;2023-06-19T12:02:58;4.85;;;2.70;;
58637;SDS011;54976;51.510;7.522;2023-06-19T12:05:59;5.85;;;2.55;;
58637;SDS011;54976;51.510;7.522;2023-06-19T12:09:00;8.10;;;2.20;;
58637;SDS011;54976;51.510;7.522;2023-06-19T12:12:00;7.18;;;2.70;;
58637;SDS011;54976;51.510;7.522;2023-06-19T12:15:03;8.98;;;2.75;;
58637;SDS011;54976;51.510;7.522;2023-06-19T12:18:05;4.57;;;2.33;;
58637;SDS011;54976;51.510;7.522;2023-06-19T12:21:07;5.00;;;2.47;;
58637;SDS011;54976;51.510;7.522;2023-06-19T12:24:07;11.27;;;3.00;;
58637;SDS011;54976;51.510;7.522;2023-06-19T12:27:08;3.17;;;2.50;;
58637;SDS011;54976;51.510;7.522;2023-06-19T12:30:09;3.35;;;2.60;;
58637;SDS011;54976;51.510;7.522;2023-06-19T12:33:10;3.20;;;2.42;;
58637;SDS011;54976;51.510;7.522;2023-06-19T12:36:11;3.30;;;2.20;;
58637;SDS011;54976;51.510;7.522;2023-06-19T12:39:14;6.05;;;2.35;;
58637;SDS011;54976;51.510;7.522;2023-06-19T12:42:16;4.67;;;2.40;;
58637;SDS011;54976;51.510;7.522;2023-06-19T12:45:17;8.50;;;2.60;;
58637;SDS011;54976;51.510;7.522;2023-06-19T12:48:18;5.60;;;2.53;;
58637;SDS011;54976;51.510;7.522;2023-06-19T12:51:18;5.88;;;2.60;;
58637;SDS011;54976;51.510;7.522;2023-06-19T12:54:19;3.42;;;2.33;;
58637;SDS011;54976;51.510;7.522;2023-06-19T12:57:20;4.80;;;2.55;;
58637;SDS011;54976;51.510;7.522;2023-06-19T13:00:20;2.83;;;2.38;;
58637;SDS011;54976;51.510;7.522;2023-06-19T13:03:21;3.90;;;2.17;;
58637;SDS011;54976;51.510;7.522;2023-06-19T13:06:21;5.18;;;2.70;;
58637;SDS011;54976;51.510;7.522;2023-06-19T13:09:23;4.50;;;2.60;;
58637;SDS011;54976;51.510;7.522;2023-06-19T13:12:24;5.20;;;2.20;;
58637;SDS011;54976;51.510;7.522;2023-06-19T13:15:24;2.60;;;2.40;;
58637;SDS011;54976;51.510;7.522;2023-06-19T13:18:25;9.38;;;2.65;;
58637;SDS011;54976;51.510;7.522;2023-06-19T13:21:26;4.03;;;2.65;;
58637;SDS011;54976;51.510;7.522;2023-06-19T13:24:26;5.85;;;3.00;;
58637;SDS011;54976;51.510;7.522;2023-06-19T13:27:27;6.50;;;2.88;;
58637;SDS011;54976;51.510;7.522;2023-06-19T13:30:28;3.80;;;2.88;;
58637;SDS011;54976;51.510;7.522;2023-06-19T13:33:29;5.70;;;2.75;;
58637;SDS011;54976;51.510;7.522;2023-06-19T13:36:30;5.20;;;2.60;;
58637;SDS011;54976;51.510;7.522;2023-06-19T13:39:30;3.40;;;2.67;;
58637;SDS011;54976;51.510;7.522;2023-06-19T13:42:31;3.13;;;2.40;;
58637;SDS011;54976;51.510;7.522;2023-06-19T13:45:33;8.35;;;2.50;;
58637;SDS011;54976;51.510;7.522;2023-06-19T13:48:34;3.25;;;2.58;;
58637;SDS011;54976;51.510;7.522;2023-06-19T13:51:35;6.30;;;2.72;;
58637;SDS011;54976;51.510;7.522;2023-06-19T13:54:36;3.88;;;2.40;;
58637;SDS011;54976;51.510;7.522;2023-06-19T13:57:36;5.40;;;2.80;;
58637;SDS011;54976;51.510;7.522;2023-06-19T14:00:38;6.88;;;2.80;;
58637;SDS011;54976;51.510;7.522;2023-06-19T14:03:39;6.07;;;2.75;;
58637;SDS011;54976;51.510;7.522;2023-06-19T14:06:39;3.78;;;2.75;;
58637;SDS011;54976;51.510;7.522;2023-06-19T14:09:42;5.05;;;2.65;;
58637;SDS011;54976;51.510;7.522;2023-06-19T14:12:43;6.43;;;2.60;;
58637;SDS011;54976;51.510;7.522;2023-06-19T14:15:43;2.65;;;2.17;;
58637;SDS011;54976;51.510;7.522;2023-06-19T14:18:44;5.57;;;2.47;;
58637;SDS011;54976;51.510;7.522;2023-06-19T14:21:44;5.22;;;2.58;;
58637;SDS011;54976;51.510;7.522;2023-06-19T14:24:45;5.45;;;2.58;;
58637;SDS011;54976;51.510;7.522;2023-06-19T14:27:46;6.22;;;2.38;;
58637;SDS011;54976;51.510;7.522;2023-06-19T14:30:46;6.40;;;2.50;;
58637;SDS011;54976;51.510;7.522;2023-06-19T14:33:47;3.13;;;2.30;;
58637;SDS011;54976;51.510;7.522;2023-06-19T14:36:47;5.85;;;2.60;;
58637;SDS011;54976;51.510;7.522;2023-06-19T14:39:48;2.83;;;2.33;;
58637;SDS011;54976;51.510;7.522;2023-06-19T14:42:49;4.75;;;2.50;;
58637;SDS011;54976;51.510;7.522;2023-06-19T14:45:49;3.60;;;2.20;;
58637;SDS011;54976;51.510;7.522;2023-06-19T14:48:50;4.00;;;2.20;;
58637;SDS011;54976;51.510;7.522;2023-06-19T14:51:51;2.88;;;2.22;;
58637;SDS011;54976;51.510;7.522;2023-06-19T14:54:52;2.97;;;2.33;;
58637;SDS011;54976;51.510;7.522;2023-06-19T14:57:52;7.57;;;2.30;;
58637;SDS011;54976;51.510;7.522;2023-06-19T15:00:53;3.13;;;2.15;;
58637;SDS011;54976;51.510;7.522;2023-06-19T15:03:54;5.10;;;2.65;;
58637;SDS011;54976;51.510;7.522;2023-06-19T15:06:54;6.63;;;2.00;;
58637;SDS011;54976;51.510;7.522;2023-06-19T15:09:56;3.17;;;2.20;;
58637;SDS011;54976;51.510;7.522;2023-06-19T15:12:56;4.55;;;2.20;;
58637;SDS011;54976;51.510;7.522;2023-06-19T15:15:57;2.42;;;2.20;;
58637;SDS011;54976;51.510;7.522;2023-06-19T15:19:00;6.60;;;2.30;;
58637;SDS011;54976;51.510;7.522;2023-06-19T15:22:01;4.68;;;2.35;;
58637;SDS011;54976;51.510;7.522;2023-06-19T15:25:01;3.45;;;2.20;;
58637;SDS011;54976;51.510;7.522;2023-06-19T15:28:02;4.50;;;1.90;;
58637;SDS011;54976;51.510;7.522;2023-06-19T15:31:03;6.47;;;2.20;;
58637;SDS011;54976;51.510;7.522;2023-06-19T15:34:03;2.72;;;2.20;;
58637;SDS011;54976;51.510;7.522;2023-06-19T15:37:04;2.28;;;1.83;;
58637;SDS011;54976;51.510;7.522;2023-06-19T15:40:05;4.70;;;2.30;;
58637;SDS011;54976;51.510;7.522;2023-06-19T15:43:06;2.50;;;2.20;;
58637;SDS011;54976;51.510;7.522;2023-06-19T15:46:07;5.38;;;2.42;;
58637;SDS011;54976;51.510;7.522;2023-06-19T15:49:09;5.82;;;2.40;;
58637;SDS011;54976;51.510;7.522;2023-06-19T15:52:11;3.55;;;2.58;;
58637;SDS011;54976;51.510;7.522;2023-06-19T15:55:12;3.13;;;2.55;;
58637;SDS011;54976;51.510;7.522;2023-06-19T15:58:14;3.55;;;2.65;;
58637;SDS011;54976;51.510;7.522;2023-06-19T16:01:14;6.53;;;2.65;;
58637;SDS011;54976;51.510;7.522;2023-06-19T16:04:15;4.90;;;2.58;;
58637;SDS011;54976;51.510;7.522;2023-06-19T16:07:15;3.80;;;2.65;;
58637;SDS011;54976;51.510;7.522;2023-06-19T16:10:16;3.45;;;2.55;;
58637;SDS011;54976;51.510;7.522;2023-06-19T16:13:18;3.25;;;2.65;;
58637;SDS011;54976;51.510;7.522;2023-06-19T16:16:19;5.88;;;2.78;;
58637;SDS011;54976;51.510;7.522;2023-06-19T16:19:19;5.88;;;2.83;;
58637;SDS011;54976;51.510;7.522;2023-06-19T16:22:20;5.93;;;3.08;;
58637;SDS011;54976;51.510;7.522;2023-06-19T16:25:21;8.10;;;2.70;;
58637;SDS011;54976;51.510;7.522;2023-06-19T16:28:22;7.15;;;3.00;;
58637;SDS011;54976;51.510;7.522;2023-06-19T16:31:23;6.53;;;2.70;;
58637;SDS011;54976;51.510;7.522;2023-06-19T16:34:24;5.05;;;2.70;;
58637;SDS011;54976;51.510;7.522;2023-06-19T16:37:24;6.22;;;2.38;;
58637;SDS011;54976;51.510;7.522;2023-06-19T16:40:25;8.80;;;2.55;;
58637;SDS011;54976;51.510;7.522;2023-06-19T16:43:26;5.35;;;2.75;;
58637;SDS011;54976;51.510;7.522;2023-06-19T16:46:26;4.47;;;2.70;;
58637;SDS011;54976;51.510;7.522;2023-06-19T16:49:27;3.75;;;2.80;;
58637;SDS011;54976;51.510;7.522;2023-06-19T16:52:28;4.38;;;3.20;;
58637;SDS011;54976;51.510;7.522;2023-06-19T16:55:28;3.65;;;2.83;;
58637;SDS011;54976;51.510;7.522;2023-06-19T16:58:29;4.25;;;2.85;;
58637;SDS011;54976;51.510;7.522;2023-06-19T17:01:30;6.65;;;3.55;;
58637;SDS011;54976;51.510;7.522;2023-06-19T17:04:30;4.97;;;2.90;;
58637;SDS011;54976;51.510;7.522;2023-06-19T17:07:31;5.70;;;3.13;;
58637;SDS011;54976;51.510;7.522;2023-06-19T17:10:31;5.10;;;2.50;;
58637;SDS011;54976;51.510;7.522;2023-06-19T17:13:32;4.25;;;2.75;;
58637;SDS011;54976;51.510;7.522;2023-06-19T17:16:33;4.82;;;2.90;;
58637;SDS011;54976;51.510;7.522;2023-06-19T17:19:33;3.10;;;2.78;;
58637;SDS011;54976;51.510;7.522;2023-06-19T17:22:34;4.93;;;3.08;;
58637;SDS011;54976;51.510;7.522;2023-06-19T17:25:35;3.60;;;2.67;;
58637;SDS011;54976;51.510;7.522;2023-06-19T17:28:35;7.35;;;2.53;;
58637;SDS011;54976;51.510;7.522;2023-06-19T17:31:36;3.40;;;2.78;;
58637;SDS011;54976;51.510;7.522;2023-06-19T17:34:37;3.67;;;2.80;;
58637;SDS011;54976;51.510;7.522;2023-06-19T17:37:38;3.22;;;2.90;;
58637;SDS011;54976;51.510;7.522;2023-06-19T17:40:39;5.95;;;2.70;;
58637;SDS011;54976;51.510;7.522;2023-06-19T17:43:40;4.53;;;3.10;;
58637;SDS011;54976;51.510;7.522;2023-06-19T17:46:41;6.63;;;2.80;;
58637;SDS011;54976;51.510;7.522;2023-06-19T17:49:43;5.53;;;3.20;;
58637;SDS011;54976;51.510;7.522;2023-06-19T17:52:43;3.78;;;2.95;;
58637;SDS011;54976;51.510;7.522;2023-06-19T17:55:44;4.60;;;3.13;;
58637;SDS011;54976;51.510;7.522;2023-06-19T17:58:45;4.70;;;2.58;;
58637;SDS011;54976;51.510;7.522;2023-06-19T18:01:45;4.28;;;2.40;;
58637;SDS011;54976;51.510;7.522;2023-06-19T18:04:47;8.15;;;2.80;;
58637;SDS011;54976;51.510;7.522;2023-06-19T18:07:47;7.10;;;2.95;;
58637;SDS011;54976;51.510;7.522;2023-06-19T18:10:48;3.45;;;2.70;;
58637;SDS011;54976;51.510;7.522;2023-06-19T18:13:49;5.95;;;2.92;;
58637;SDS011;54976;51.510;7.522;2023-06-19T18:16:49;5.78;;;3.03;;
58637;SDS011;54976;51.510;7.522;2023-06-19T18:19:50;7.85;;;3.08;;